createdAt,value
2023-04-14T00:00:09.131Z,0.00
2023-04-14T00:01:30.080Z,0.00
2023-04-14T00:02:09.148Z,0.00
2023-04-14T00:03:09.285Z,0.00
2023-04-14T00:04:09.151Z,0.00
2023-04-14T00:05:09.066Z,0.00
2023-04-14T00:06:09.039Z,0.00
2023-04-14T00:07:30.034Z,0.00
2023-04-14T00:08:09.021Z,0.00
2023-04-14T00:09:09.014Z,0.00
2023-04-14T00:10:09.014Z,0.00
2023-04-14T00:11:09.000Z,0.00
2023-04-14T00:12:08.993Z,0.00
2023-04-14T00:13:29.983Z,0.00
2023-04-14T00:14:08.977Z,0.00
2023-04-14T00:15:08.968Z,0.00
2023-04-14T00:16:08.973Z,0.00
2023-04-14T00:17:08.983Z,0.00
2023-04-14T00:18:08.961Z,0.00
2023-04-14T00:19:29.937Z,0.00
2023-04-14T00:20:08.921Z,0.00
2023-04-14T00:21:08.918Z,0.00
2023-04-14T00:22:08.907Z,0.00
2023-04-14T00:23:08.888Z,0.00
2023-04-14T00:24:08.884Z,0.00
2023-04-14T00:25:29.913Z,0.00
2023-04-14T00:26:08.877Z,0.00
2023-04-14T00:27:08.864Z,0.00
2023-04-14T00:28:08.847Z,0.00
2023-04-14T00:29:08.837Z,0.00
2023-04-14T00:30:08.837Z,0.00
2023-04-14T00:31:29.873Z,0.00
2023-04-14T00:32:08.821Z,0.00
2023-04-14T00:33:08.811Z,0.00
2023-04-14T00:34:08.814Z,0.00
2023-04-14T00:35:08.801Z,0.00
2023-04-14T00:36:08.781Z,0.00
2023-04-14T00:37:29.781Z,0.00
2023-04-14T00:38:08.758Z,0.00
2023-04-14T00:39:08.741Z,0.00
2023-04-14T00:40:08.755Z,0.00
2023-04-14T00:41:08.744Z,0.00
2023-04-14T00:42:08.722Z,0.00
2023-04-14T00:43:29.726Z,0.00
2023-04-14T00:44:08.706Z,0.00
2023-04-14T00:45:08.689Z,0.00
2023-04-14T00:46:08.732Z,0.00
2023-04-14T00:47:08.676Z,0.00
2023-04-14T00:48:08.669Z,0.00
2023-04-14T00:49:29.669Z,0.00
2023-04-14T00:50:08.655Z,0.00
2023-04-14T00:51:08.639Z,0.00
2023-04-14T00:52:08.644Z,0.00
2023-04-14T00:53:08.622Z,0.00
2023-04-14T00:54:08.622Z,0.00
2023-04-14T00:55:29.611Z,0.00
2023-04-14T00:56:08.609Z,0.00
2023-04-14T00:57:08.586Z,0.00
2023-04-14T00:58:08.579Z,0.00
2023-04-14T00:59:08.566Z,0.00
2023-04-14T01:00:08.561Z,0.00
2023-04-14T01:01:29.579Z,0.00
2023-04-14T01:02:08.642Z,0.00
2023-04-14T01:03:08.731Z,0.00
2023-04-14T01:04:08.709Z,0.00
2023-04-14T01:05:08.665Z,0.00
2023-04-14T01:06:08.512Z,0.00
2023-04-14T01:07:29.499Z,0.00
2023-04-14T01:08:08.486Z,0.00
2023-04-14T01:09:08.478Z,0.00
2023-04-14T01:10:08.473Z,0.00
2023-04-14T01:11:08.458Z,0.00
2023-04-14T01:12:08.464Z,0.00
2023-04-14T01:13:29.440Z,0.00
2023-04-14T01:14:08.431Z,0.00
2023-04-14T01:15:08.415Z,0.00
2023-04-14T01:16:08.519Z,0.00
2023-04-14T01:17:08.406Z,0.00
2023-04-14T01:18:08.417Z,0.00
2023-04-14T01:19:29.384Z,0.00
2023-04-14T01:20:08.396Z,0.00
2023-04-14T01:21:08.362Z,0.00
2023-04-14T01:22:08.359Z,0.00
2023-04-14T01:23:08.373Z,0.00
2023-04-14T01:24:08.341Z,0.00
2023-04-14T01:25:29.334Z,0.00
2023-04-14T01:26:08.328Z,0.00
2023-04-14T01:27:08.311Z,0.00
2023-04-14T01:28:08.296Z,0.00
2023-04-14T01:29:08.292Z,0.00
2023-04-14T01:30:08.309Z,0.00
2023-04-14T01:31:29.317Z,0.00
2023-04-14T01:32:08.282Z,0.00
2023-04-14T01:33:08.256Z,0.00
2023-04-14T01:34:08.250Z,0.00
2023-04-14T01:35:08.237Z,0.00
2023-04-14T01:36:08.232Z,0.00
2023-04-14T01:37:29.231Z,0.00
2023-04-14T01:38:08.211Z,0.00
2023-04-14T01:39:08.201Z,0.00
2023-04-14T01:40:08.189Z,0.00
2023-04-14T01:41:08.187Z,0.00
2023-04-14T01:42:08.177Z,0.00
2023-04-14T01:43:29.171Z,0.00
2023-04-14T01:44:08.151Z,0.00
2023-04-14T01:45:08.143Z,0.00
2023-04-14T01:46:08.144Z,0.00
2023-04-14T01:47:08.116Z,0.00
2023-04-14T01:48:08.131Z,0.00
2023-04-14T01:49:29.138Z,0.00
2023-04-14T01:50:08.095Z,0.00
2023-04-14T01:51:08.081Z,0.00
2023-04-14T01:52:08.095Z,0.00
2023-04-14T01:53:08.079Z,0.00
2023-04-14T01:54:08.062Z,0.00
2023-04-14T01:55:29.056Z,0.00
2023-04-14T01:56:08.041Z,0.00
2023-04-14T01:57:08.081Z,0.00
2023-04-14T01:58:08.032Z,0.00
2023-04-14T01:59:08.015Z,0.00
2023-04-14T02:00:08.017Z,0.00
2023-04-14T02:01:29.153Z,0.00
2023-04-14T02:02:08.041Z,0.00
2023-04-14T02:03:08.048Z,0.00
2023-04-14T02:04:08.100Z,0.00
2023-04-14T02:05:07.949Z,0.00
2023-04-14T02:06:07.949Z,0.00
2023-04-14T02:07:28.969Z,0.00
2023-04-14T02:08:07.931Z,0.00
2023-04-14T02:09:07.921Z,0.00
2023-04-14T02:10:07.913Z,0.00
2023-04-14T02:11:07.891Z,0.00
2023-04-14T02:12:07.888Z,0.00
2023-04-14T02:13:28.909Z,0.00
2023-04-14T02:14:07.908Z,0.00
2023-04-14T02:15:07.928Z,0.00
2023-04-14T02:16:07.877Z,0.00
2023-04-14T02:17:07.833Z,0.00
2023-04-14T02:18:07.844Z,0.00
2023-04-14T02:19:28.825Z,0.00
2023-04-14T02:20:07.821Z,0.00
2023-04-14T02:21:07.797Z,0.00
2023-04-14T02:22:07.798Z,0.00
2023-04-14T02:23:07.790Z,0.00
2023-04-14T02:24:07.788Z,0.00
2023-04-14T02:25:28.769Z,0.00
2023-04-14T02:26:07.755Z,0.00
2023-04-14T02:27:07.740Z,0.00
2023-04-14T02:28:07.736Z,0.00
2023-04-14T02:29:07.740Z,0.00
2023-04-14T02:30:07.715Z,0.00
2023-04-14T02:31:28.721Z,0.00
2023-04-14T02:32:07.706Z,0.00
2023-04-14T02:33:07.703Z,0.00
2023-04-14T02:34:07.676Z,0.00
2023-04-14T02:35:07.677Z,0.00
2023-04-14T02:36:07.659Z,0.00
2023-04-14T02:37:28.666Z,0.00
2023-04-14T02:38:07.636Z,0.00
2023-04-14T02:39:07.640Z,0.00
2023-04-14T02:40:07.633Z,0.00
2023-04-14T02:41:07.617Z,0.00
2023-04-14T02:42:07.620Z,0.00
2023-04-14T02:43:28.602Z,0.00
2023-04-14T02:44:07.617Z,0.00
2023-04-14T02:45:07.633Z,0.00
2023-04-14T02:46:07.623Z,0.00
2023-04-14T02:47:07.608Z,0.00
2023-04-14T02:48:07.549Z,0.00
2023-04-14T02:49:28.554Z,0.00
2023-04-14T02:50:07.530Z,0.00
2023-04-14T02:51:07.532Z,0.00
2023-04-14T02:52:07.523Z,0.00
2023-04-14T02:53:07.503Z,0.00
2023-04-14T02:54:07.491Z,0.00
2023-04-14T02:55:28.491Z,0.00
2023-04-14T02:56:07.473Z,0.00
2023-04-14T02:57:07.477Z,0.00
2023-04-14T02:58:07.455Z,0.00
2023-04-14T02:59:07.467Z,0.00
2023-04-14T03:00:07.457Z,0.00
2023-04-14T03:01:28.478Z,0.00
2023-04-14T03:02:07.469Z,0.00
2023-04-14T03:03:07.582Z,0.00
2023-04-14T03:04:07.428Z,0.00
2023-04-14T03:05:07.401Z,0.00
2023-04-14T03:06:07.385Z,0.00
2023-04-14T03:07:28.383Z,0.00
2023-04-14T03:08:07.363Z,0.00
2023-04-14T03:09:07.366Z,0.00
2023-04-14T03:10:07.341Z,0.00
2023-04-14T03:11:07.340Z,0.00
2023-04-14T03:12:07.322Z,0.00
2023-04-14T03:13:28.319Z,0.00
2023-04-14T03:14:07.303Z,0.00
2023-04-14T03:15:07.301Z,0.00
2023-04-14T03:16:07.351Z,0.00
2023-04-14T03:17:07.285Z,0.00
2023-04-14T03:18:07.322Z,0.00
2023-04-14T03:19:28.271Z,0.00
2023-04-14T03:20:07.241Z,0.00
2023-04-14T03:21:07.232Z,0.00
2023-04-14T03:22:07.227Z,0.00
2023-04-14T03:23:07.222Z,0.00
2023-04-14T03:24:07.209Z,0.00
2023-04-14T03:25:28.229Z,0.00
2023-04-14T03:26:07.185Z,0.00
2023-04-14T03:27:07.174Z,0.00
2023-04-14T03:28:07.160Z,0.00
2023-04-14T03:29:07.159Z,0.00
2023-04-14T03:30:07.202Z,0.00
2023-04-14T03:31:28.228Z,0.00
2023-04-14T03:32:07.119Z,0.00
2023-04-14T03:33:07.239Z,0.00
2023-04-14T03:34:07.113Z,0.00
2023-04-14T03:35:07.120Z,0.00
2023-04-14T03:36:07.080Z,0.00
2023-04-14T03:37:28.087Z,0.00
2023-04-14T03:38:07.078Z,0.00
2023-04-14T03:39:07.071Z,0.00
2023-04-14T03:40:07.044Z,0.00
2023-04-14T03:41:07.042Z,0.00
2023-04-14T03:42:07.031Z,0.00
2023-04-14T03:43:28.038Z,0.00
2023-04-14T03:44:07.012Z,0.00
2023-04-14T03:45:07.014Z,0.00
2023-04-14T03:46:07.177Z,0.00
2023-04-14T03:47:06.994Z,0.00
2023-04-14T03:48:06.966Z,0.00
2023-04-14T03:49:27.969Z,0.00
2023-04-14T03:50:06.964Z,0.00
2023-04-14T03:51:06.948Z,0.00
2023-04-14T03:52:06.929Z,0.00
2023-04-14T03:53:06.932Z,0.00
2023-04-14T03:54:06.907Z,0.00
2023-04-14T03:55:27.931Z,0.00
2023-04-14T03:56:06.906Z,0.00
2023-04-14T03:57:06.884Z,0.00
2023-04-14T03:58:06.868Z,0.00
2023-04-14T03:59:08.425Z,0.00
2023-04-14T04:00:06.845Z,0.00
2023-04-14T04:01:27.852Z,0.00
2023-04-14T04:02:06.905Z,0.00
2023-04-14T04:03:06.964Z,0.00
2023-04-14T04:04:06.985Z,0.00
2023-04-14T04:05:06.846Z,0.00
2023-04-14T04:06:06.809Z,0.00
2023-04-14T04:07:27.801Z,0.00
2023-04-14T04:08:06.778Z,0.00
2023-04-14T04:09:06.789Z,0.00
2023-04-14T04:10:06.777Z,0.00
2023-04-14T04:11:06.782Z,0.00
2023-04-14T04:12:06.773Z,0.00
2023-04-14T04:13:27.734Z,0.00
2023-04-14T04:14:06.738Z,0.00
2023-04-14T04:15:06.707Z,0.00
2023-04-14T04:16:06.739Z,0.00
2023-04-14T04:17:06.685Z,0.00
2023-04-14T04:18:06.670Z,0.00
2023-04-14T04:19:27.691Z,0.00
2023-04-14T04:20:07.381Z,4.00
2023-04-14T04:21:06.655Z,4.00
2023-04-14T04:22:06.643Z,0.00
2023-04-14T04:23:06.628Z,4.00
2023-04-14T04:24:06.610Z,4.00
2023-04-14T04:25:27.630Z,4.00
2023-04-14T04:26:06.589Z,4.00
2023-04-14T04:27:12.053Z,8.00
2023-04-14T04:28:06.581Z,4.00
2023-04-14T04:29:06.572Z,8.00
2023-04-14T04:30:06.554Z,8.00
2023-04-14T04:31:27.583Z,8.00
2023-04-14T04:32:06.610Z,12.00
2023-04-14T04:33:06.550Z,12.00
2023-04-14T04:34:06.556Z,16.00
2023-04-14T04:35:06.505Z,16.00
2023-04-14T04:36:06.613Z,20.00
2023-04-14T04:37:27.494Z,20.00
2023-04-14T04:38:06.477Z,24.00
2023-04-14T04:39:06.470Z,28.00
2023-04-14T04:40:06.450Z,28.00
2023-04-14T04:41:06.442Z,32.00
2023-04-14T04:42:06.428Z,36.00
2023-04-14T04:43:27.449Z,40.00
2023-04-14T04:44:06.429Z,40.00
2023-04-14T04:45:06.401Z,48.00
2023-04-14T04:46:06.444Z,52.00
2023-04-14T04:47:06.394Z,56.00
2023-04-14T04:48:06.399Z,60.00
2023-04-14T04:49:27.380Z,64.00
2023-04-14T04:50:06.355Z,72.00
2023-04-14T04:51:06.346Z,76.00
2023-04-14T04:52:06.348Z,76.00
2023-04-14T04:53:06.342Z,84.00
2023-04-14T04:54:06.308Z,92.00
2023-04-14T04:55:27.309Z,96.00
2023-04-14T04:56:06.293Z,100.00
2023-04-14T04:57:06.288Z,104.00
2023-04-14T04:58:06.264Z,112.00
2023-04-14T04:59:06.257Z,116.00
2023-04-14T05:00:06.243Z,120.00
2023-04-14T05:01:27.273Z,124.00
2023-04-14T05:02:06.290Z,132.00
2023-04-14T05:03:06.342Z,136.00
2023-04-14T05:04:06.249Z,144.00
2023-04-14T05:05:06.197Z,148.00
2023-04-14T05:06:06.197Z,156.00
2023-04-14T05:07:27.190Z,160.00
2023-04-14T05:08:06.171Z,164.00
2023-04-14T05:09:06.171Z,168.00
2023-04-14T05:10:06.149Z,180.00
2023-04-14T05:11:06.150Z,188.00
2023-04-14T05:12:06.126Z,192.00
2023-04-14T05:13:27.157Z,196.00
2023-04-14T05:14:06.105Z,204.00
2023-04-14T05:15:06.111Z,212.00
2023-04-14T05:16:06.091Z,216.00
2023-04-14T05:17:06.089Z,220.00
2023-04-14T05:18:06.102Z,232.00
2023-04-14T05:19:27.067Z,232.00
2023-04-14T05:20:06.046Z,240.00
2023-04-14T05:21:06.044Z,248.00
2023-04-14T05:22:06.033Z,252.00
2023-04-14T05:23:06.016Z,256.00
2023-04-14T05:24:06.012Z,264.00
2023-04-14T05:25:27.010Z,268.00
2023-04-14T05:26:27.071Z,272.00
2023-04-14T05:27:14.376Z,280.00
2023-04-14T05:28:05.965Z,284.00
2023-04-14T05:29:05.967Z,288.00
2023-04-14T05:30:05.942Z,292.00
2023-04-14T05:31:27.008Z,300.00
2023-04-14T05:32:05.922Z,304.00
2023-04-14T05:33:05.928Z,308.00
2023-04-14T05:34:05.908Z,308.00
2023-04-14T05:35:05.896Z,312.00
2023-04-14T05:36:05.891Z,320.00
2023-04-14T05:37:26.890Z,324.00
2023-04-14T05:38:05.861Z,328.00
2023-04-14T05:39:05.861Z,332.00
2023-04-14T05:40:05.852Z,336.00
2023-04-14T05:41:05.831Z,340.00
2023-04-14T05:42:05.824Z,344.00
2023-04-14T05:43:26.823Z,348.00
2023-04-14T05:44:05.817Z,348.00
2023-04-14T05:45:05.790Z,356.00
2023-04-14T05:46:05.870Z,360.00
2023-04-14T05:47:05.808Z,364.00
2023-04-14T05:48:05.788Z,372.00
2023-04-14T05:49:26.756Z,372.00
2023-04-14T05:50:05.752Z,376.00
2023-04-14T05:51:05.767Z,384.00
2023-04-14T05:52:05.730Z,388.00
2023-04-14T05:53:05.720Z,392.00
2023-04-14T05:54:05.710Z,396.00
2023-04-14T05:55:26.701Z,396.00
2023-04-14T05:56:05.705Z,404.00
2023-04-14T05:57:05.679Z,408.00
2023-04-14T05:58:05.660Z,408.00
2023-04-14T05:59:05.651Z,416.00
2023-04-14T06:00:05.643Z,416.00
2023-04-14T06:01:26.642Z,420.00
2023-04-14T06:02:05.696Z,428.00
2023-04-14T06:03:05.984Z,432.00
2023-04-14T06:04:06.180Z,432.00
2023-04-14T06:05:05.726Z,436.00
2023-04-14T06:06:05.603Z,444.00
2023-04-14T06:07:26.580Z,448.00
2023-04-14T06:08:05.563Z,452.00
2023-04-14T06:09:05.555Z,456.00
2023-04-14T06:10:05.559Z,456.00
2023-04-14T06:11:05.550Z,460.00
2023-04-14T06:12:05.538Z,464.00
2023-04-14T06:13:27.145Z,464.00
2023-04-14T06:14:05.524Z,472.00
2023-04-14T06:15:05.505Z,472.00
2023-04-14T06:16:05.553Z,476.00
2023-04-14T06:17:05.475Z,476.00
2023-04-14T06:18:05.481Z,484.00
2023-04-14T06:19:26.470Z,488.00
2023-04-14T06:20:05.465Z,488.00
2023-04-14T06:21:05.452Z,488.00
2023-04-14T06:22:05.420Z,492.00
2023-04-14T06:23:05.412Z,496.00
2023-04-14T06:24:05.400Z,496.00
2023-04-14T06:25:26.396Z,500.00
2023-04-14T06:26:05.396Z,500.00
2023-04-14T06:27:05.395Z,504.00
2023-04-14T06:28:05.364Z,508.00
2023-04-14T06:29:05.353Z,516.00
2023-04-14T06:30:05.342Z,516.00
2023-04-14T06:31:26.365Z,524.00
2023-04-14T06:32:05.390Z,524.00
2023-04-14T06:33:05.320Z,532.00
2023-04-14T06:34:05.300Z,528.00
2023-04-14T06:35:05.297Z,532.00
2023-04-14T06:36:05.309Z,536.00
2023-04-14T06:37:26.297Z,540.00
2023-04-14T06:38:05.265Z,544.00
2023-04-14T06:39:05.251Z,540.00
2023-04-14T06:40:05.249Z,548.00
2023-04-14T06:41:05.237Z,548.00
2023-04-14T06:42:05.223Z,552.00
2023-04-14T06:43:26.213Z,556.00
2023-04-14T06:44:05.202Z,560.00
2023-04-14T06:45:05.210Z,564.00
2023-04-14T06:46:05.195Z,564.00
2023-04-14T06:47:05.167Z,568.00
2023-04-14T06:48:05.207Z,572.00
2023-04-14T06:49:26.157Z,580.00
2023-04-14T06:50:05.154Z,576.00
2023-04-14T06:51:05.133Z,580.00
2023-04-14T06:52:05.146Z,592.00
2023-04-14T06:53:05.119Z,592.00
2023-04-14T06:54:05.112Z,588.00
2023-04-14T06:55:26.104Z,596.00
2023-04-14T06:56:05.089Z,600.00
2023-04-14T06:57:05.081Z,604.00
2023-04-14T06:58:05.102Z,604.00
2023-04-14T06:59:05.066Z,608.00
2023-04-14T07:00:05.057Z,612.00
2023-04-14T07:01:26.076Z,616.00
2023-04-14T07:02:05.071Z,620.00
2023-04-14T07:03:05.064Z,620.00
2023-04-14T07:04:07.593Z,624.00
2023-04-14T07:05:05.109Z,628.00
2023-04-14T07:06:04.984Z,632.00
2023-04-14T07:07:25.977Z,628.00
2023-04-14T07:08:04.974Z,632.00
2023-04-14T07:09:04.998Z,636.00
2023-04-14T07:10:05.018Z,636.00
2023-04-14T07:11:04.933Z,636.00
2023-04-14T07:12:04.954Z,636.00
2023-04-14T07:13:25.922Z,640.00
2023-04-14T07:14:04.913Z,640.00
2023-04-14T07:15:04.907Z,644.00
2023-04-14T07:16:04.918Z,648.00
2023-04-14T07:17:04.884Z,648.00
2023-04-14T07:18:04.942Z,652.00
2023-04-14T07:19:25.869Z,652.00
2023-04-14T07:20:04.867Z,656.00
2023-04-14T07:21:04.846Z,660.00
2023-04-14T07:22:04.849Z,660.00
2023-04-14T07:23:04.815Z,660.00
2023-04-14T07:24:04.813Z,660.00
2023-04-14T07:25:25.803Z,664.00
2023-04-14T07:26:04.799Z,672.00
2023-04-14T07:27:04.797Z,676.00
2023-04-14T07:28:04.810Z,680.00
2023-04-14T07:29:04.778Z,680.00
2023-04-14T07:30:04.759Z,688.00
2023-04-14T07:31:25.804Z,684.00
2023-04-14T07:32:04.743Z,684.00
2023-04-14T07:33:04.807Z,692.00
2023-04-14T07:34:04.744Z,688.00
2023-04-14T07:35:04.722Z,692.00
2023-04-14T07:36:04.722Z,696.00
2023-04-14T07:37:25.701Z,700.00
2023-04-14T07:38:04.694Z,700.00
2023-04-14T07:39:04.677Z,700.00
2023-04-14T07:40:04.674Z,704.00
2023-04-14T07:41:04.655Z,708.00
2023-04-14T07:42:04.656Z,708.00
2023-04-14T07:43:25.656Z,712.00
2023-04-14T07:44:04.630Z,712.00
2023-04-14T07:45:04.632Z,716.00
2023-04-14T07:46:04.632Z,720.00
2023-04-14T07:47:04.595Z,724.00
2023-04-14T07:48:04.640Z,724.00
2023-04-14T07:49:25.587Z,728.00
2023-04-14T07:50:04.580Z,728.00
2023-04-14T07:51:04.569Z,732.00
2023-04-14T07:52:04.575Z,736.00
2023-04-14T07:53:04.610Z,736.00
2023-04-14T07:54:04.549Z,740.00
2023-04-14T07:55:27.005Z,744.00
2023-04-14T07:56:04.539Z,744.00
2023-04-14T07:57:04.513Z,748.00
2023-04-14T07:58:04.508Z,752.00
2023-04-14T07:59:04.503Z,756.00
2023-04-14T08:00:04.505Z,756.00
2023-04-14T08:01:25.519Z,760.00
2023-04-14T08:02:04.545Z,768.00
2023-04-14T08:03:04.579Z,768.00
2023-04-14T08:04:04.711Z,772.00
2023-04-14T08:05:04.590Z,776.00
2023-04-14T08:06:04.439Z,776.00
2023-04-14T08:07:25.430Z,784.00
2023-04-14T08:08:04.426Z,784.00
2023-04-14T08:09:04.429Z,788.00
2023-04-14T08:10:04.420Z,792.00
2023-04-14T08:11:04.459Z,796.00
2023-04-14T08:12:04.405Z,796.00
2023-04-14T08:13:25.387Z,800.00
2023-04-14T08:14:04.373Z,804.00
2023-04-14T08:15:04.366Z,804.00
2023-04-14T08:16:04.386Z,812.00
2023-04-14T08:17:04.347Z,812.00
2023-04-14T08:18:04.415Z,820.00
2023-04-14T08:19:25.321Z,824.00
2023-04-14T08:20:04.349Z,828.00
2023-04-14T08:21:04.306Z,832.00
2023-04-14T08:22:04.322Z,836.00
2023-04-14T08:23:04.303Z,840.00
2023-04-14T08:24:04.280Z,844.00
2023-04-14T08:25:25.281Z,848.00
2023-04-14T08:26:04.294Z,852.00
2023-04-14T08:27:04.255Z,852.00
2023-04-14T08:28:04.247Z,856.00
2023-04-14T08:29:04.298Z,860.00
2023-04-14T08:30:04.224Z,868.00
2023-04-14T08:31:25.236Z,876.00
2023-04-14T08:32:04.272Z,884.00
2023-04-14T08:33:04.288Z,892.00
2023-04-14T08:34:04.198Z,896.00
2023-04-14T08:35:35.111Z,904.00
2023-04-14T08:36:04.184Z,916.00
2023-04-14T08:37:25.174Z,928.00
2023-04-14T08:38:04.176Z,936.00
2023-04-14T08:39:04.172Z,948.00
2023-04-14T08:40:04.170Z,960.00
2023-04-14T08:41:04.145Z,972.00
2023-04-14T08:42:04.131Z,984.00
2023-04-14T08:43:25.128Z,1000.00
2023-04-14T08:44:04.129Z,1012.00
2023-04-14T08:45:04.106Z,1024.00
2023-04-14T08:46:04.127Z,1036.00
2023-04-14T08:47:04.096Z,1048.00
2023-04-14T08:48:04.126Z,1060.00
2023-04-14T08:49:25.113Z,1072.00
2023-04-14T08:50:04.090Z,1088.00
2023-04-14T08:51:04.070Z,1104.00
2023-04-14T08:52:04.076Z,1136.00
2023-04-14T08:53:04.075Z,1152.00
2023-04-14T08:54:04.260Z,1156.00
2023-04-14T08:55:25.053Z,1180.00
2023-04-14T08:56:04.040Z,1268.00
2023-04-14T08:57:04.031Z,1452.00
2023-04-14T08:58:04.034Z,1556.00
2023-04-14T08:59:04.007Z,1472.00
2023-04-14T09:00:04.008Z,1296.00
2023-04-14T09:01:25.109Z,1252.00
2023-04-14T09:02:04.117Z,1304.00
2023-04-14T09:03:04.136Z,1340.00
2023-04-14T09:04:04.314Z,1328.00
2023-04-14T09:05:03.961Z,1324.00
2023-04-14T09:06:03.972Z,1388.00
2023-04-14T09:07:24.955Z,1512.00
2023-04-14T09:08:03.958Z,1572.00
2023-04-14T09:09:03.947Z,1500.00
2023-04-14T09:10:03.937Z,1592.00
2023-04-14T09:11:03.927Z,1940.00
2023-04-14T09:12:03.932Z,2120.00
2023-04-14T09:13:24.917Z,2096.00
2023-04-14T09:14:04.183Z,2112.00
2023-04-14T09:15:03.909Z,2204.00
2023-04-14T09:16:03.898Z,2072.00
2023-04-14T09:17:03.919Z,1896.00
2023-04-14T09:18:03.896Z,1860.00
2023-04-14T09:19:24.888Z,1860.00
2023-04-14T09:20:35.747Z,1880.00
2023-04-14T09:21:31.754Z,1856.00
2023-04-14T09:22:03.860Z,1840.00
2023-04-14T09:23:03.840Z,1800.00
2023-04-14T09:24:03.839Z,1892.00
2023-04-14T09:25:24.830Z,1836.00
2023-04-14T09:26:03.820Z,1856.00
2023-04-14T09:27:03.839Z,1884.00
2023-04-14T09:28:03.826Z,1916.00
2023-04-14T09:29:04.029Z,1952.00
2023-04-14T09:30:03.817Z,2020.00
2023-04-14T09:31:25.020Z,2084.00
2023-04-14T09:32:03.786Z,2160.00
2023-04-14T09:33:03.842Z,2196.00
2023-04-14T09:34:04.013Z,2228.00
2023-04-14T09:35:03.768Z,2296.00
2023-04-14T09:36:03.756Z,2408.00
2023-04-14T09:37:24.758Z,2500.00
2023-04-14T09:38:03.779Z,2552.00
2023-04-14T09:39:03.732Z,2608.00
2023-04-14T09:40:03.755Z,2668.00
2023-04-14T09:41:03.724Z,2760.00
2023-04-14T09:42:03.718Z,2916.00
2023-04-14T09:43:24.728Z,3220.00
2023-04-14T09:44:03.939Z,10344.00
2023-04-14T09:45:03.711Z,25056.00
2023-04-14T09:46:03.722Z,30976.00
2023-04-14T09:47:03.688Z,32608.00
2023-04-14T09:48:03.705Z,25952.00
2023-04-14T09:49:24.680Z,16960.00
2023-04-14T09:50:03.869Z,14260.00
2023-04-14T09:51:03.671Z,28608.00
2023-04-14T09:52:03.670Z,33952.00
2023-04-14T09:53:03.686Z,31264.00
2023-04-14T09:54:03.860Z,31872.00
2023-04-14T09:55:24.659Z,32128.00
2023-04-14T09:56:03.714Z,33344.00
2023-04-14T09:57:03.665Z,34208.00
2023-04-14T09:58:03.639Z,34016.00
2023-04-14T09:59:04.098Z,33792.00
2023-04-14T10:00:03.643Z,34624.00
2023-04-14T10:01:24.638Z,32800.00
2023-04-14T10:02:03.727Z,36352.00
2023-04-14T10:03:03.659Z,32864.00
2023-04-14T10:04:03.619Z,30880.00
2023-04-14T10:05:03.607Z,31264.00
2023-04-14T10:06:03.607Z,36864.00
2023-04-14T10:07:24.644Z,42048.00
2023-04-14T10:08:03.624Z,38432.00
2023-04-14T10:09:03.999Z,23136.00
2023-04-14T10:10:03.606Z,20256.00
2023-04-14T10:11:03.599Z,32320.00
2023-04-14T10:12:03.597Z,38336.00
2023-04-14T10:13:24.586Z,37152.00
2023-04-14T10:14:03.629Z,35200.00
2023-04-14T10:15:03.591Z,35104.00
2023-04-14T10:16:03.647Z,36480.00
2023-04-14T10:17:03.598Z,37760.00
2023-04-14T10:18:03.607Z,36960.00
2023-04-14T10:19:24.586Z,37696.00
2023-04-14T10:20:03.581Z,36864.00
2023-04-14T10:21:05.384Z,36896.00
2023-04-14T10:22:03.577Z,36896.00
2023-04-14T10:23:03.578Z,37056.00
2023-04-14T10:24:03.564Z,36416.00
2023-04-14T10:25:24.586Z,35328.00
2023-04-14T10:26:03.577Z,35232.00
2023-04-14T10:27:03.571Z,35584.00
2023-04-14T10:28:03.562Z,37984.00
2023-04-14T10:29:03.713Z,42272.00
2023-04-14T10:30:03.568Z,44480.00
2023-04-14T10:31:24.657Z,43008.00
2023-04-14T10:32:03.622Z,42624.00
2023-04-14T10:33:03.617Z,43072.00
2023-04-14T10:34:03.574Z,43008.00
2023-04-14T10:35:03.573Z,37952.00
2023-04-14T10:36:03.573Z,38240.00
2023-04-14T10:37:24.574Z,40224.00
2023-04-14T10:38:03.576Z,38528.00
2023-04-14T10:39:03.789Z,38592.00
2023-04-14T10:40:03.573Z,36800.00
2023-04-14T10:41:03.596Z,33888.00
2023-04-14T10:42:03.575Z,31968.00
2023-04-14T10:43:24.584Z,30080.00
2023-04-14T10:44:03.577Z,28832.00
2023-04-14T10:45:03.568Z,28256.00
2023-04-14T10:46:03.580Z,27456.00
2023-04-14T10:47:03.670Z,27104.00
2023-04-14T10:48:03.594Z,26400.00
2023-04-14T10:49:24.572Z,25536.00
2023-04-14T10:50:03.600Z,25504.00
2023-04-14T10:51:03.572Z,25472.00
2023-04-14T10:52:03.580Z,24640.00
2023-04-14T10:53:03.566Z,24064.00
2023-04-14T10:54:03.606Z,23488.00
2023-04-14T10:55:24.575Z,23424.00
2023-04-14T10:56:03.571Z,22880.00
2023-04-14T10:57:03.592Z,22368.00
2023-04-14T10:58:03.639Z,22112.00
2023-04-14T10:59:03.579Z,20576.00
2023-04-14T11:00:03.566Z,17056.00
2023-04-14T11:01:24.633Z,19168.00
2023-04-14T11:02:03.648Z,20832.00
2023-04-14T11:03:03.734Z,20448.00
2023-04-14T11:04:03.702Z,19680.00
2023-04-14T11:05:03.573Z,19744.00
2023-04-14T11:06:03.587Z,19584.00
2023-04-14T11:07:24.582Z,18912.00
2023-04-14T11:08:03.580Z,18528.00
2023-04-14T11:09:03.724Z,18464.00
2023-04-14T11:10:03.585Z,18048.00
2023-04-14T11:11:03.569Z,17344.00
2023-04-14T11:12:03.577Z,17280.00
2023-04-14T11:13:24.584Z,18400.00
2023-04-14T11:14:03.563Z,18400.00
2023-04-14T11:15:03.571Z,18112.00
2023-04-14T11:16:03.569Z,17408.00
2023-04-14T11:17:04.743Z,17568.00
2023-04-14T11:18:03.626Z,17600.00
2023-04-14T11:19:24.592Z,16928.00
2023-04-14T11:20:03.572Z,17696.00
2023-04-14T11:21:03.590Z,17088.00
2023-04-14T11:22:03.591Z,17440.00
2023-04-14T11:23:03.610Z,17472.00
2023-04-14T11:24:03.614Z,17536.00
2023-04-14T11:25:25.207Z,17184.00
2023-04-14T11:26:03.586Z,17152.00
2023-04-14T11:27:03.618Z,17344.00
2023-04-14T11:28:03.603Z,17184.00
2023-04-14T11:29:03.615Z,17056.00
2023-04-14T11:30:03.595Z,17024.00
2023-04-14T11:31:24.654Z,15796.00
2023-04-14T11:32:03.635Z,10144.00
2023-04-14T11:33:03.664Z,3972.00
2023-04-14T11:34:03.607Z,2240.00
2023-04-14T11:35:03.626Z,1864.00
2023-04-14T11:36:03.621Z,1712.00
2023-04-14T11:37:24.636Z,1648.00
2023-04-14T11:38:03.612Z,1664.00
2023-04-14T11:39:03.718Z,1688.00
2023-04-14T11:40:03.612Z,1704.00
2023-04-14T11:41:03.610Z,1760.00
2023-04-14T11:42:03.609Z,1824.00
2023-04-14T11:43:24.621Z,2004.00
2023-04-14T11:44:03.615Z,2140.00
2023-04-14T11:45:03.625Z,2156.00
2023-04-14T11:46:03.704Z,2100.00
2023-04-14T11:47:03.616Z,2032.00
2023-04-14T11:48:03.647Z,1956.00
2023-04-14T11:49:24.662Z,1908.00
2023-04-14T11:50:03.621Z,1884.00
2023-04-14T11:51:04.035Z,1848.00
2023-04-14T11:52:03.607Z,1820.00
2023-04-14T11:53:03.618Z,1820.00
2023-04-14T11:54:03.664Z,1828.00
2023-04-14T11:55:24.616Z,1856.00
2023-04-14T11:56:03.603Z,1876.00
2023-04-14T11:57:03.617Z,1912.00
2023-04-14T11:58:03.618Z,1956.00
2023-04-14T11:59:03.886Z,2020.00
2023-04-14T12:00:03.601Z,2076.00
2023-04-14T12:01:24.601Z,2164.00
2023-04-14T12:02:03.662Z,2236.00
2023-04-14T12:03:03.702Z,2296.00
2023-04-14T12:04:03.705Z,2368.00
2023-04-14T12:05:03.859Z,2440.00
2023-04-14T12:06:03.715Z,2472.00
2023-04-14T12:07:24.592Z,2464.00
2023-04-14T12:08:03.584Z,2456.00
2023-04-14T12:09:03.624Z,2476.00
2023-04-14T12:10:03.573Z,2512.00
2023-04-14T12:11:03.579Z,2536.00
2023-04-14T12:12:03.567Z,2544.00
2023-04-14T12:13:24.579Z,2592.00
2023-04-14T12:14:03.560Z,2604.00
2023-04-14T12:15:03.562Z,2572.00
2023-04-14T12:16:03.563Z,2520.00
2023-04-14T12:17:03.550Z,2472.00
2023-04-14T12:18:03.650Z,2400.00
2023-04-14T12:19:24.548Z,2352.00
2023-04-14T12:20:03.544Z,2320.00
2023-04-14T12:21:03.528Z,2328.00
2023-04-14T12:22:03.561Z,2332.00
2023-04-14T12:23:03.527Z,2312.00
2023-04-14T12:24:03.567Z,2296.00
2023-04-14T12:25:24.520Z,2316.00
2023-04-14T12:26:03.521Z,2372.00
2023-04-14T12:27:03.505Z,2432.00
2023-04-14T12:28:03.526Z,2452.00
2023-04-14T12:29:03.657Z,2476.00
2023-04-14T12:30:03.508Z,2500.00
2023-04-14T12:31:24.520Z,2524.00
2023-04-14T12:32:03.566Z,2544.00
2023-04-14T12:33:03.504Z,2540.00
2023-04-14T12:34:03.791Z,2524.00
2023-04-14T12:35:03.473Z,2572.00